sensor_id;sensor_type;location;lat;lon;timestamp;P1;P2;P0
60245;PMS5003;46107;53.356;-1.524;2022-07-01T00:02:08;3;3;
60245;PMS5003;46107;53.356;-1.524;2022-07-01T00:04:35;5;4;
60245;PMS5003;46107;53.356;-1.524;2022-07-01T00:07:03;3;3;
60245;PMS5003;46107;53.356;-1.524;2022-07-01T00:09:30;3;3;
60245;PMS5003;46107;53.356;-1.524;2022-07-01T00:11:58;3;3;
60245;PMS5003;46107;53.356;-1.524;2022-07-01T00:14:25;4;4;
60245;PMS5003;46107;53.356;-1.524;2022-07-01T00:16:53;3;3;
60245;PMS5003;46107;53.356;-1.524;2022-07-01T00:19:22;6;5;
60245;PMS5003;46107;53.356;-1.524;2022-07-01T00:21:50;4;4;
60245;PMS5003;46107;53.356;-1.524;2022-07-01T00:24:17;3;3;
60245;PMS5003;46107;53.356;-1.524;2022-07-01T00:26:45;4;4;
60245;PMS5003;46107;53.356;-1.524;2022-07-01T00:29:12;5;5;
60245;PMS5003;46107;53.356;-1.524;2022-07-01T00:31:40;4;4;
60245;PMS5003;46107;53.356;-1.524;2022-07-01T00:34:07;7;5;
60245;PMS5003;46107;53.356;-1.524;2022-07-01T00:36:35;6;6;
60245;PMS5003;46107;53.356;-1.524;2022-07-01T00:39:02;6;6;
60245;PMS5003;46107;53.356;-1.524;2022-07-01T00:41:30;5;5;
60245;PMS5003;46107;53.356;-1.524;2022-07-01T00:43:57;8;8;
60245;PMS5003;46107;53.356;-1.524;2022-07-01T00:46:25;8;8;
60245;PMS5003;46107;53.356;-1.524;2022-07-01T00:48:54;10;9;
60245;PMS5003;46107;53.356;-1.524;2022-07-01T00:51:24;6;5;
60245;PMS5003;46107;53.356;-1.524;2022-07-01T00:53:51;5;3;
60245;PMS5003;46107;53.356;-1.524;2022-07-01T00:56:19;4;4;
60245;PMS5003;46107;53.356;-1.524;2022-07-01T00:58:46;2;2;
60245;PMS5003;46107;53.356;-1.524;2022-07-01T01:01:14;5;4;
60245;PMS5003;46107;53.356;-1.524;2022-07-01T01:03:41;3;3;
60245;PMS5003;46107;53.356;-1.524;2022-07-01T01:06:09;1;1;
60245;PMS5003;46107;53.356;-1.524;2022-07-01T01:08:37;2;2;
60245;PMS5003;46107;53.356;-1.524;2022-07-01T01:11:06;1;1;
60245;PMS5003;46107;53.356;-1.524;2022-07-01T01:13:33;4;3;
60245;PMS5003;46107;53.356;-1.524;2022-07-01T01:16:01;2;2;
60245;PMS5003;46107;53.356;-1.524;2022-07-01T01:18:28;3;3;
60245;PMS5003;46107;53.356;-1.524;2022-07-01T01:20:56;3;3;
60245;PMS5003;46107;53.356;-1.524;2022-07-01T01:23:23;5;4;
60245;PMS5003;46107;53.356;-1.524;2022-07-01T01:25:51;3;3;
60245;PMS5003;46107;53.356;-1.524;2022-07-01T01:28:18;3;3;
60245;PMS5003;46107;53.356;-1.524;2022-07-01T01:30:46;4;4;
60245;PMS5003;46107;53.356;-1.524;2022-07-01T01:33:13;3;3;
60245;PMS5003;46107;53.356;-1.524;2022-07-01T01:35:41;2;2;
60245;PMS5003;46107;53.356;-1.524;2022-07-01T01:38:08;4;4;
60245;PMS5003;46107;53.356;-1.524;2022-07-01T01:40:36;5;5;
60245;PMS5003;46107;53.356;-1.524;2022-07-01T01:43:03;9;7;
60245;PMS5003;46107;53.356;-1.524;2022-07-01T01:45:31;7;7;
60245;PMS5003;46107;53.356;-1.524;2022-07-01T01:47:58;9;8;
60245;PMS5003;46107;53.356;-1.524;2022-07-01T01:50:26;8;8;
60245;PMS5003;46107;53.356;-1.524;2022-07-01T01:52:59;8;7;
60245;PMS5003;46107;53.356;-1.524;2022-07-01T01:55:26;11;9;
60245;PMS5003;46107;53.356;-1.524;2022-07-01T01:57:59;12;11;
60245;PMS5003;46107;53.356;-1.524;2022-07-01T02:00:27;13;11;
60245;PMS5003;46107;53.356;-1.524;2022-07-01T02:03:00;11;10;
60245;PMS5003;46107;53.356;-1.524;2022-07-01T02:05:27;11;11;
60245;PMS5003;46107;53.356;-1.524;2022-07-01T02:08:00;17;13;
60245;PMS5003;46107;53.356;-1.524;2022-07-01T02:10:27;11;11;
60245;PMS5003;46107;53.356;-1.524;2022-07-01T02:12:55;16;15;
60245;PMS5003;46107;53.356;-1.524;2022-07-01T02:15:22;13;13;
60245;PMS5003;46107;53.356;-1.524;2022-07-01T02:17:50;16;14;
60245;PMS5003;46107;53.356;-1.524;2022-07-01T02:20:17;13;11;
60245;PMS5003;46107;53.356;-1.524;2022-07-01T02:22:44;13;12;
60245;PMS5003;46107;53.356;-1.524;2022-07-01T02:25:12;15;14;
60245;PMS5003;46107;53.356;-1.524;2022-07-01T02:27:39;13;13;
60245;PMS5003;46107;53.356;-1.524;2022-07-01T02:30:07;15;15;
60245;PMS5003;46107;53.356;-1.524;2022-07-01T02:32:35;18;17;
60245;PMS5003;46107;53.356;-1.524;2022-07-01T02:35:02;17;16;
60245;PMS5003;46107;53.356;-1.524;2022-07-01T02:37:30;19;17;
60245;PMS5003;46107;53.356;-1.524;2022-07-01T02:39:58;22;18;
60245;PMS5003;46107;53.356;-1.524;2022-07-01T02:42:25;20;18;
60245;PMS5003;46107;53.356;-1.524;2022-07-01T02:44:53;17;16;
60245;PMS5003;46107;53.356;-1.524;2022-07-01T02:47:23;18;16;
60245;PMS5003;46107;53.356;-1.524;2022-07-01T02:49:50;15;14;
60245;PMS5003;46107;53.356;-1.524;2022-07-01T02:52:22;19;18;
60245;PMS5003;46107;53.356;-1.524;2022-07-01T02:54:51;15;14;
60245;PMS5003;46107;53.356;-1.524;2022-07-01T02:57:18;15;15;
60245;PMS5003;46107;53.356;-1.524;2022-07-01T02:59:46;16;16;
60245;PMS5003;46107;53.356;-1.524;2022-07-01T03:02:13;18;15;
60245;PMS5003;46107;53.356;-1.524;2022-07-01T03:04:41;14;14;
60245;PMS5003;46107;53.356;-1.524;2022-07-01T03:07:08;14;14;
60245;PMS5003;46107;53.356;-1.524;2022-07-01T03:09:35;16;12;
60245;PMS5003;46107;53.356;-1.524;2022-07-01T03:12:03;13;13;
60245;PMS5003;46107;53.356;-1.524;2022-07-01T03:14:31;16;16;
60245;PMS5003;46107;53.356;-1.524;2022-07-01T03:16:58;14;14;
60245;PMS5003;46107;53.356;-1.524;2022-07-01T03:19:25;16;12;
60245;PMS5003;46107;53.356;-1.524;2022-07-01T03:21:52;14;14;
60245;PMS5003;46107;53.356;-1.524;2022-07-01T03:24:19;13;13;
60245;PMS5003;46107;53.356;-1.524;2022-07-01T03:26:47;14;13;
60245;PMS5003;46107;53.356;-1.524;2022-07-01T03:29:14;13;12;
60245;PMS5003;46107;53.356;-1.524;2022-07-01T03:31:41;12;12;
60245;PMS5003;46107;53.356;-1.524;2022-07-01T03:34:09;15;14;
60245;PMS5003;46107;53.356;-1.524;2022-07-01T03:36:36;11;11;
60245;PMS5003;46107;53.356;-1.524;2022-07-01T03:39:04;12;11;
60245;PMS5003;46107;53.356;-1.524;2022-07-01T03:41:32;15;14;
60245;PMS5003;46107;53.356;-1.524;2022-07-01T03:43:59;9;9;
60245;PMS5003;46107;53.356;-1.524;2022-07-01T03:46:27;16;16;
60245;PMS5003;46107;53.356;-1.524;2022-07-01T03:48:59;12;11;
60245;PMS5003;46107;53.356;-1.524;2022-07-01T03:51:26;14;13;
60245;PMS5003;46107;53.356;-1.524;2022-07-01T03:53:53;16;14;
60245;PMS5003;46107;53.356;-1.524;2022-07-01T03:56:21;14;13;
60245;PMS5003;46107;53.356;-1.524;2022-07-01T03:58:49;14;14;
60245;PMS5003;46107;53.356;-1.524;2022-07-01T04:01:16;13;12;
60245;PMS5003;46107;53.356;-1.524;2022-07-01T04:03:43;15;14;
60245;PMS5003;46107;53.356;-1.524;2022-07-01T04:06:11;15;15;
60245;PMS5003;46107;53.356;-1.524;2022-07-01T04:08:38;11;11;
60245;PMS5003;46107;53.356;-1.524;2022-07-01T04:11:06;10;10;
60245;PMS5003;46107;53.356;-1.524;2022-07-01T04:13:34;10;10;
60245;PMS5003;46107;53.356;-1.524;2022-07-01T04:16:02;13;13;
60245;PMS5003;46107;53.356;-1.524;2022-07-01T04:18:29;14;13;
60245;PMS5003;46107;53.356;-1.524;2022-07-01T04:20:58;12;12;
60245;PMS5003;46107;53.356;-1.524;2022-07-01T04:23:26;11;11;
60245;PMS5003;46107;53.356;-1.524;2022-07-01T04:25:53;14;13;
60245;PMS5003;46107;53.356;-1.524;2022-07-01T04:28:21;14;12;
60245;PMS5003;46107;53.356;-1.524;2022-07-01T04:30:49;16;16;
60245;PMS5003;46107;53.356;-1.524;2022-07-01T04:33:16;13;13;
60245;PMS5003;46107;53.356;-1.524;2022-07-01T04:35:43;15;13;
60245;PMS5003;46107;53.356;-1.524;2022-07-01T04:38:11;11;11;
60245;PMS5003;46107;53.356;-1.524;2022-07-01T04:40:38;16;15;
60245;PMS5003;46107;53.356;-1.524;2022-07-01T04:43:05;15;13;
60245;PMS5003;46107;53.356;-1.524;2022-07-01T04:45:32;15;13;
60245;PMS5003;46107;53.356;-1.524;2022-07-01T04:47:59;19;16;
60245;PMS5003;46107;53.356;-1.524;2022-07-01T04:50:26;12;12;
60245;PMS5003;46107;53.356;-1.524;2022-07-01T04:52:53;16;15;
60245;PMS5003;46107;53.356;-1.524;2022-07-01T04:55:26;16;15;
60245;PMS5003;46107;53.356;-1.524;2022-07-01T04:57:53;15;15;
60245;PMS5003;46107;53.356;-1.524;2022-07-01T05:00:20;17;14;
60245;PMS5003;46107;53.356;-1.524;2022-07-01T05:02:48;23;20;
60245;PMS5003;46107;53.356;-1.524;2022-07-01T05:05:15;17;16;
60245;PMS5003;46107;53.356;-1.524;2022-07-01T05:07:42;16;15;
60245;PMS5003;46107;53.356;-1.524;2022-07-01T05:10:10;14;14;
60245;PMS5003;46107;53.356;-1.524;2022-07-01T05:12:37;19;17;
60245;PMS5003;46107;53.356;-1.524;2022-07-01T05:15:05;16;15;
60245;PMS5003;46107;53.356;-1.524;2022-07-01T05:17:33;15;15;
60245;PMS5003;46107;53.356;-1.524;2022-07-01T05:20:01;17;16;
60245;PMS5003;46107;53.356;-1.524;2022-07-01T05:22:28;18;18;
60245;PMS5003;46107;53.356;-1.524;2022-07-01T05:24:55;14;13;
60245;PMS5003;46107;53.356;-1.524;2022-07-01T05:27:22;17;16;
60245;PMS5003;46107;53.356;-1.524;2022-07-01T05:29:50;20;18;
60245;PMS5003;46107;53.356;-1.524;2022-07-01T05:32:17;20;19;
60245;PMS5003;46107;53.356;-1.524;2022-07-01T05:34:45;20;18;
60245;PMS5003;46107;53.356;-1.524;2022-07-01T05:37:12;18;15;
60245;PMS5003;46107;53.356;-1.524;2022-07-01T05:39:39;18;18;
60245;PMS5003;46107;53.356;-1.524;2022-07-01T05:42:06;17;17;
60245;PMS5003;46107;53.356;-1.524;2022-07-01T05:44:33;19;17;
60245;PMS5003;46107;53.356;-1.524;2022-07-01T05:47:01;16;14;
60245;PMS5003;46107;53.356;-1.524;2022-07-01T05:49:28;20;17;
60245;PMS5003;46107;53.356;-1.524;2022-07-01T05:51:56;18;17;
60245;PMS5003;46107;53.356;-1.524;2022-07-01T05:54:23;20;20;
60245;PMS5003;46107;53.356;-1.524;2022-07-01T05:56:50;18;16;
60245;PMS5003;46107;53.356;-1.524;2022-07-01T05:59:17;21;19;
60245;PMS5003;46107;53.356;-1.524;2022-07-01T06:01:44;27;25;
60245;PMS5003;46107;53.356;-1.524;2022-07-01T06:04:11;25;23;
60245;PMS5003;46107;53.356;-1.524;2022-07-01T06:06:39;26;25;
60245;PMS5003;46107;53.356;-1.524;2022-07-01T06:09:06;20;19;
60245;PMS5003;46107;53.356;-1.524;2022-07-01T06:11:33;22;21;
60245;PMS5003;46107;53.356;-1.524;2022-07-01T06:14:00;22;21;
60245;PMS5003;46107;53.356;-1.524;2022-07-01T06:16:28;26;24;
60245;PMS5003;46107;53.356;-1.524;2022-07-01T06:19:00;24;22;
60245;PMS5003;46107;53.356;-1.524;2022-07-01T06:21:27;18;18;
60245;PMS5003;46107;53.356;-1.524;2022-07-01T06:23:59;20;20;
60245;PMS5003;46107;53.356;-1.524;2022-07-01T06:26:27;26;23;
60245;PMS5003;46107;53.356;-1.524;2022-07-01T06:29:00;27;21;
60245;PMS5003;46107;53.356;-1.524;2022-07-01T06:31:27;19;19;
60245;PMS5003;46107;53.356;-1.524;2022-07-01T06:33:59;18;18;
60245;PMS5003;46107;53.356;-1.524;2022-07-01T06:36:27;17;16;
60245;PMS5003;46107;53.356;-1.524;2022-07-01T06:38:56;16;16;
60245;PMS5003;46107;53.356;-1.524;2022-07-01T06:41:23;17;17;
60245;PMS5003;46107;53.356;-1.524;2022-07-01T06:43:51;17;17;
60245;PMS5003;46107;53.356;-1.524;2022-07-01T06:46:18;13;13;
60245;PMS5003;46107;53.356;-1.524;2022-07-01T06:48:46;17;16;
60245;PMS5003;46107;53.356;-1.524;2022-07-01T06:51:13;13;13;
60245;PMS5003;46107;53.356;-1.524;2022-07-01T06:53:40;13;13;
60245;PMS5003;46107;53.356;-1.524;2022-07-01T06:56:07;16;14;
60245;PMS5003;46107;53.356;-1.524;2022-07-01T06:58:34;20;20;
60245;PMS5003;46107;53.356;-1.524;2022-07-01T07:01:01;16;16;
60245;PMS5003;46107;53.356;-1.524;2022-07-01T07:03:29;15;15;
60245;PMS5003;46107;53.356;-1.524;2022-07-01T07:05:56;16;15;
60245;PMS5003;46107;53.356;-1.524;2022-07-01T07:08:23;14;14;
60245;PMS5003;46107;53.356;-1.524;2022-07-01T07:10:51;15;15;
60245;PMS5003;46107;53.356;-1.524;2022-07-01T07:13:17;15;15;
60245;PMS5003;46107;53.356;-1.524;2022-07-01T07:15:45;14;14;
60245;PMS5003;46107;53.356;-1.524;2022-07-01T07:18:13;15;15;
60245;PMS5003;46107;53.356;-1.524;2022-07-01T07:20:41;11;11;
60245;PMS5003;46107;53.356;-1.524;2022-07-01T07:23:08;14;13;
60245;PMS5003;46107;53.356;-1.524;2022-07-01T07:25:36;13;11;
60245;PMS5003;46107;53.356;-1.524;2022-07-01T07:28:03;13;11;
60245;PMS5003;46107;53.356;-1.524;2022-07-01T07:30:30;15;13;
60245;PMS5003;46107;53.356;-1.524;2022-07-01T07:32:58;9;9;
60245;PMS5003;46107;53.356;-1.524;2022-07-01T07:35:25;10;10;
60245;PMS5003;46107;53.356;-1.524;2022-07-01T07:37:53;12;10;
60245;PMS5003;46107;53.356;-1.524;2022-07-01T07:40:20;13;11;
60245;PMS5003;46107;53.356;-1.524;2022-07-01T07:42:48;12;11;
60245;PMS5003;46107;53.356;-1.524;2022-07-01T07:45:15;10;10;
60245;PMS5003;46107;53.356;-1.524;2022-07-01T07:47:43;10;10;
60245;PMS5003;46107;53.356;-1.524;2022-07-01T07:50:11;11;10;
60245;PMS5003;46107;53.356;-1.524;2022-07-01T07:52:39;14;13;
60245;PMS5003;46107;53.356;-1.524;2022-07-01T07:55:07;9;9;
60245;PMS5003;46107;53.356;-1.524;2022-07-01T07:57:35;10;9;
60245;PMS5003;46107;53.356;-1.524;2022-07-01T08:00:04;11;9;
60245;PMS5003;46107;53.356;-1.524;2022-07-01T08:02:34;11;11;
60245;PMS5003;46107;53.356;-1.524;2022-07-01T08:05:01;11;10;
60245;PMS5003;46107;53.356;-1.524;2022-07-01T08:07:29;10;10;
60245;PMS5003;46107;53.356;-1.524;2022-07-01T08:10:00;10;10;
60245;PMS5003;46107;53.356;-1.524;2022-07-01T08:12:28;9;9;
60245;PMS5003;46107;53.356;-1.524;2022-07-01T08:14:55;10;10;
60245;PMS5003;46107;53.356;-1.524;2022-07-01T08:17:23;8;8;
60245;PMS5003;46107;53.356;-1.524;2022-07-01T08:19:50;12;11;
60245;PMS5003;46107;53.356;-1.524;2022-07-01T08:22:18;12;12;
60245;PMS5003;46107;53.356;-1.524;2022-07-01T08:24:45;16;16;
60245;PMS5003;46107;53.356;-1.524;2022-07-01T08:27:12;18;16;
60245;PMS5003;46107;53.356;-1.524;2022-07-01T08:29:40;15;15;
60245;PMS5003;46107;53.356;-1.524;2022-07-01T08:32:07;16;15;
60245;PMS5003;46107;53.356;-1.524;2022-07-01T08:34:35;18;15;
60245;PMS5003;46107;53.356;-1.524;2022-07-01T08:37:03;20;16;
60245;PMS5003;46107;53.356;-1.524;2022-07-01T08:39:31;14;13;
60245;PMS5003;46107;53.356;-1.524;2022-07-01T08:41:59;16;15;
60245;PMS5003;46107;53.356;-1.524;2022-07-01T08:44:26;13;12;
60245;PMS5003;46107;53.356;-1.524;2022-07-01T08:46:54;15;14;
60245;PMS5003;46107;53.356;-1.524;2022-07-01T08:49:22;15;13;
60245;PMS5003;46107;53.356;-1.524;2022-07-01T08:51:49;10;8;
60245;PMS5003;46107;53.356;-1.524;2022-07-01T08:54:17;9;9;
60245;PMS5003;46107;53.356;-1.524;2022-07-01T08:56:44;13;10;
60245;PMS5003;46107;53.356;-1.524;2022-07-01T08:59:13;12;10;
60245;PMS5003;46107;53.356;-1.524;2022-07-01T09:01:54;12;12;
60245;PMS5003;46107;53.356;-1.524;2022-07-01T09:04:22;12;11;
60245;PMS5003;46107;53.356;-1.524;2022-07-01T09:06:50;10;10;
60245;PMS5003;46107;53.356;-1.524;2022-07-01T09:09:19;14;12;
60245;PMS5003;46107;53.356;-1.524;2022-07-01T09:11:48;14;13;
60245;PMS5003;46107;53.356;-1.524;2022-07-01T09:14:17;13;10;
60245;PMS5003;46107;53.356;-1.524;2022-07-01T09:16:45;11;10;
60245;PMS5003;46107;53.356;-1.524;2022-07-01T09:19:14;13;11;
60245;PMS5003;46107;53.356;-1.524;2022-07-01T09:21:43;13;11;
60245;PMS5003;46107;53.356;-1.524;2022-07-01T09:24:23;11;11;
60245;PMS5003;46107;53.356;-1.524;2022-07-01T09:26:53;8;8;
60245;PMS5003;46107;53.356;-1.524;2022-07-01T09:29:29;11;11;
60245;PMS5003;46107;53.356;-1.524;2022-07-01T09:31:58;7;7;
60245;PMS5003;46107;53.356;-1.524;2022-07-01T09:34:27;9;9;
60245;PMS5003;46107;53.356;-1.524;2022-07-01T09:37:01;12;11;
60245;PMS5003;46107;53.356;-1.524;2022-07-01T09:39:29;13;12;
60245;PMS5003;46107;53.356;-1.524;2022-07-01T09:42:07;13;13;
60245;PMS5003;46107;53.356;-1.524;2022-07-01T09:44:34;15;14;
60245;PMS5003;46107;53.356;-1.524;2022-07-01T09:47:17;14;12;
60245;PMS5003;46107;53.356;-1.524;2022-07-01T09:49:48;15;14;
60245;PMS5003;46107;53.356;-1.524;2022-07-01T09:52:16;12;12;
60245;PMS5003;46107;53.356;-1.524;2022-07-01T09:54:44;12;12;
60245;PMS5003;46107;53.356;-1.524;2022-07-01T09:57:12;10;10;
60245;PMS5003;46107;53.356;-1.524;2022-07-01T09:59:39;11;11;
60245;PMS5003;46107;53.356;-1.524;2022-07-01T10:02:07;12;11;
60245;PMS5003;46107;53.356;-1.524;2022-07-01T10:04:35;14;11;
60245;PMS5003;46107;53.356;-1.524;2022-07-01T10:07:09;14;14;
60245;PMS5003;46107;53.356;-1.524;2022-07-01T10:09:56;16;16;
60245;PMS5003;46107;53.356;-1.524;2022-07-01T10:12:40;19;19;
60245;PMS5003;46107;53.356;-1.524;2022-07-01T10:15:11;26;24;
60245;PMS5003;46107;53.356;-1.524;2022-07-01T10:17:45;27;26;
60245;PMS5003;46107;53.356;-1.524;2022-07-01T10:20:15;21;19;
60245;PMS5003;46107;53.356;-1.524;2022-07-01T10:22:44;18;18;
60245;PMS5003;46107;53.356;-1.524;2022-07-01T10:25:45;18;17;
60245;PMS5003;46107;53.356;-1.524;2022-07-01T10:28:15;18;17;
60245;PMS5003;46107;53.356;-1.524;2022-07-01T10:31:01;17;12;
60245;PMS5003;46107;53.356;-1.524;2022-07-01T10:33:30;12;10;
60245;PMS5003;46107;53.356;-1.524;2022-07-01T10:36:03;12;10;
60245;PMS5003;46107;53.356;-1.524;2022-07-01T10:38:32;8;8;
60245;PMS5003;46107;53.356;-1.524;2022-07-01T10:41:03;10;8;
60245;PMS5003;46107;53.356;-1.524;2022-07-01T10:43:31;5;5;
60245;PMS5003;46107;53.356;-1.524;2022-07-01T10:46:00;6;6;
60245;PMS5003;46107;53.356;-1.524;2022-07-01T10:48:30;2;2;
60245;PMS5003;46107;53.356;-1.524;2022-07-01T10:50:58;3;3;
60245;PMS5003;46107;53.356;-1.524;2022-07-01T10:53:30;4;4;
60245;PMS5003;46107;53.356;-1.524;2022-07-01T10:56:14;3;3;
60245;PMS5003;46107;53.356;-1.524;2022-07-01T10:58:43;3;3;
60245;PMS5003;46107;53.356;-1.524;2022-07-01T11:01:10;4;4;
60245;PMS5003;46107;53.356;-1.524;2022-07-01T11:03:38;4;4;
60245;PMS5003;46107;53.356;-1.524;2022-07-01T11:06:05;3;3;
60245;PMS5003;46107;53.356;-1.524;2022-07-01T11:08:33;4;4;
60245;PMS5003;46107;53.356;-1.524;2022-07-01T11:11:01;5;5;
60245;PMS5003;46107;53.356;-1.524;2022-07-01T11:13:29;3;3;
60245;PMS5003;46107;53.356;-1.524;2022-07-01T11:15:57;4;3;
60245;PMS5003;46107;53.356;-1.524;2022-07-01T11:18:25;4;4;
60245;PMS5003;46107;53.356;-1.524;2022-07-01T11:21:01;2;2;
60245;PMS5003;46107;53.356;-1.524;2022-07-01T11:23:30;4;4;
60245;PMS5003;46107;53.356;-1.524;2022-07-01T11:25:57;3;3;
60245;PMS5003;46107;53.356;-1.524;2022-07-01T11:28:25;3;3;
60245;PMS5003;46107;53.356;-1.524;2022-07-01T11:30:58;6;6;
60245;PMS5003;46107;53.356;-1.524;2022-07-01T11:33:26;3;3;
60245;PMS5003;46107;53.356;-1.524;2022-07-01T11:35:53;2;2;
60245;PMS5003;46107;53.356;-1.524;2022-07-01T11:38:21;1;1;
60245;PMS5003;46107;53.356;-1.524;2022-07-01T11:40:52;4;4;
60245;PMS5003;46107;53.356;-1.524;2022-07-01T11:43:20;3;3;
60245;PMS5003;46107;53.356;-1.524;2022-07-01T11:45:50;7;5;
60245;PMS5003;46107;53.356;-1.524;2022-07-01T11:48:35;2;2;
60245;PMS5003;46107;53.356;-1.524;2022-07-01T11:51:06;3;3;
60245;PMS5003;46107;53.356;-1.524;2022-07-01T11:53:37;4;3;
60245;PMS5003;46107;53.356;-1.524;2022-07-01T11:56:05;5;3;
60245;PMS5003;46107;53.356;-1.524;2022-07-01T11:58:40;4;2;
60245;PMS5003;46107;53.356;-1.524;2022-07-01T12:01:21;2;2;
60245;PMS5003;46107;53.356;-1.524;2022-07-01T12:03:50;4;4;
60245;PMS5003;46107;53.356;-1.524;2022-07-01T12:06:18;5;3;
60245;PMS5003;46107;53.356;-1.524;2022-07-01T12:08:46;4;4;
60245;PMS5003;46107;53.356;-1.524;2022-07-01T12:11:15;4;4;
60245;PMS5003;46107;53.356;-1.524;2022-07-01T12:13:44;5;5;
60245;PMS5003;46107;53.356;-1.524;2022-07-01T12:16:12;6;4;
60245;PMS5003;46107;53.356;-1.524;2022-07-01T12:18:50;6;6;
60245;PMS5003;46107;53.356;-1.524;2022-07-01T12:21:19;5;5;
60245;PMS5003;46107;53.356;-1.524;2022-07-01T12:24:01;5;5;
60245;PMS5003;46107;53.356;-1.524;2022-07-01T12:26:30;7;6;
60245;PMS5003;46107;53.356;-1.524;2022-07-01T12:28:58;4;4;
60245;PMS5003;46107;53.356;-1.524;2022-07-01T12:31:25;7;6;
60245;PMS5003;46107;53.356;-1.524;2022-07-01T12:33:53;5;5;
60245;PMS5003;46107;53.356;-1.524;2022-07-01T12:36:20;4;4;
60245;PMS5003;46107;53.356;-1.524;2022-07-01T12:38:59;5;5;
60245;PMS5003;46107;53.356;-1.524;2022-07-01T12:41:30;4;4;
60245;PMS5003;46107;53.356;-1.524;2022-07-01T12:43:58;4;4;
60245;PMS5003;46107;53.356;-1.524;2022-07-01T12:46:27;5;5;
60245;PMS5003;46107;53.356;-1.524;2022-07-01T12:49:00;5;5;
60245;PMS5003;46107;53.356;-1.524;2022-07-01T12:51:29;7;7;
60245;PMS5003;46107;53.356;-1.524;2022-07-01T12:53:58;5;5;
60245;PMS5003;46107;53.356;-1.524;2022-07-01T12:56:27;6;6;
60245;PMS5003;46107;53.356;-1.524;2022-07-01T12:58:55;6;6;
60245;PMS5003;46107;53.356;-1.524;2022-07-01T13:01:23;8;8;
60245;PMS5003;46107;53.356;-1.524;2022-07-01T13:03:50;8;7;
60245;PMS5003;46107;53.356;-1.524;2022-07-01T13:06:17;9;7;
60245;PMS5003;46107;53.356;-1.524;2022-07-01T13:08:45;10;8;
60245;PMS5003;46107;53.356;-1.524;2022-07-01T13:11:12;6;6;
60245;PMS5003;46107;53.356;-1.524;2022-07-01T13:13:41;8;8;
60245;PMS5003;46107;53.356;-1.524;2022-07-01T13:16:09;10;8;
60245;PMS5003;46107;53.356;-1.524;2022-07-01T13:18:37;11;9;
60245;PMS5003;46107;53.356;-1.524;2022-07-01T13:21:04;11;11;
60245;PMS5003;46107;53.356;-1.524;2022-07-01T13:23:31;9;7;
60245;PMS5003;46107;53.356;-1.524;2022-07-01T13:25:59;10;10;
60245;PMS5003;46107;53.356;-1.524;2022-07-01T13:28:26;9;9;
60245;PMS5003;46107;53.356;-1.524;2022-07-01T13:30:54;7;7;
60245;PMS5003;46107;53.356;-1.524;2022-07-01T13:33:21;7;7;
60245;PMS5003;46107;53.356;-1.524;2022-07-01T13:35:50;7;6;
60245;PMS5003;46107;53.356;-1.524;2022-07-01T13:38:18;5;5;
60245;PMS5003;46107;53.356;-1.524;2022-07-01T13:40:45;3;3;
60245;PMS5003;46107;53.356;-1.524;2022-07-01T13:43:13;5;5;
60245;PMS5003;46107;53.356;-1.524;2022-07-01T13:45:40;4;4;
60245;PMS5003;46107;53.356;-1.524;2022-07-01T13:48:08;3;3;
60245;PMS5003;46107;53.356;-1.524;2022-07-01T13:50:35;3;3;
60245;PMS5003;46107;53.356;-1.524;2022-07-01T13:53:03;2;2;
60245;PMS5003;46107;53.356;-1.524;2022-07-01T13:55:30;2;2;
60245;PMS5003;46107;53.356;-1.524;2022-07-01T13:57:58;4;2;
60245;PMS5003;46107;53.356;-1.524;2022-07-01T14:00:25;2;2;
60245;PMS5003;46107;53.356;-1.524;2022-07-01T14:02:52;4;2;
60245;PMS5003;46107;53.356;-1.524;2022-07-01T14:05:20;1;1;
60245;PMS5003;46107;53.356;-1.524;2022-07-01T14:07:47;4;2;
60245;PMS5003;46107;53.356;-1.524;2022-07-01T14:10:15;2;2;
60245;PMS5003;46107;53.356;-1.524;2022-07-01T14:12:42;3;3;
60245;PMS5003;46107;53.356;-1.524;2022-07-01T14:15:09;3;3;
60245;PMS5003;46107;53.356;-1.524;2022-07-01T14:17:37;4;4;
60245;PMS5003;46107;53.356;-1.524;2022-07-01T14:20:05;3;3;
60245;PMS5003;46107;53.356;-1.524;2022-07-01T14:22:33;4;3;
60245;PMS5003;46107;53.356;-1.524;2022-07-01T14:25:00;4;4;
60245;PMS5003;46107;53.356;-1.524;2022-07-01T14:27:27;6;5;
60245;PMS5003;46107;53.356;-1.524;2022-07-01T14:29:55;6;5;
60245;PMS5003;46107;53.356;-1.524;2022-07-01T14:32:22;6;6;
60245;PMS5003;46107;53.356;-1.524;2022-07-01T14:34:50;5;5;
60245;PMS5003;46107;53.356;-1.524;2022-07-01T14:37:17;5;5;
60245;PMS5003;46107;53.356;-1.524;2022-07-01T14:39:45;7;5;
60245;PMS5003;46107;53.356;-1.524;2022-07-01T14:42:12;4;4;
60245;PMS5003;46107;53.356;-1.524;2022-07-01T14:44:40;5;5;
60245;PMS5003;46107;53.356;-1.524;2022-07-01T14:47:07;7;5;
60245;PMS5003;46107;53.356;-1.524;2022-07-01T14:49:35;5;5;
60245;PMS5003;46107;53.356;-1.524;2022-07-01T14:52:03;5;4;
60245;PMS5003;46107;53.356;-1.524;2022-07-01T14:54:31;6;5;
60245;PMS5003;46107;53.356;-1.524;2022-07-01T14:56:58;4;4;
60245;PMS5003;46107;53.356;-1.524;2022-07-01T14:59:26;7;6;
60245;PMS5003;46107;53.356;-1.524;2022-07-01T15:01:53;3;3;
60245;PMS5003;46107;53.356;-1.524;2022-07-01T15:04:21;5;4;
60245;PMS5003;46107;53.356;-1.524;2022-07-01T15:06:48;4;4;
60245;PMS5003;46107;53.356;-1.524;2022-07-01T15:09:16;5;5;
60245;PMS5003;46107;53.356;-1.524;2022-07-01T15:11:43;7;7;
60245;PMS5003;46107;53.356;-1.524;2022-07-01T15:14:10;3;3;
60245;PMS5003;46107;53.356;-1.524;2022-07-01T15:16:38;5;5;
60245;PMS5003;46107;53.356;-1.524;2022-07-01T15:19:08;3;3;
60245;PMS5003;46107;53.356;-1.524;2022-07-01T15:21:37;3;3;
60245;PMS5003;46107;53.356;-1.524;2022-07-01T15:24:05;3;2;
60245;PMS5003;46107;53.356;-1.524;2022-07-01T15:26:32;3;3;
60245;PMS5003;46107;53.356;-1.524;2022-07-01T15:28:59;3;3;
60245;PMS5003;46107;53.356;-1.524;2022-07-01T15:31:27;6;4;
60245;PMS5003;46107;53.356;-1.524;2022-07-01T15:33:54;3;3;
60245;PMS5003;46107;53.356;-1.524;2022-07-01T15:36:27;3;3;
60245;PMS5003;46107;53.356;-1.524;2022-07-01T15:38:55;4;4;
60245;PMS5003;46107;53.356;-1.524;2022-07-01T15:41:28;3;3;
60245;PMS5003;46107;53.356;-1.524;2022-07-01T15:43:58;2;2;
60245;PMS5003;46107;53.356;-1.524;2022-07-01T15:46:25;3;3;
60245;PMS5003;46107;53.356;-1.524;2022-07-01T15:48:53;2;2;
60245;PMS5003;46107;53.356;-1.524;2022-07-01T15:51:20;4;4;
60245;PMS5003;46107;53.356;-1.524;2022-07-01T15:53:48;2;2;
60245;PMS5003;46107;53.356;-1.524;2022-07-01T15:56:15;2;2;
60245;PMS5003;46107;53.356;-1.524;2022-07-01T15:58:42;3;3;
60245;PMS5003;46107;53.356;-1.524;2022-07-01T16:01:10;3;2;
60245;PMS5003;46107;53.356;-1.524;2022-07-01T16:03:37;1;1;
60245;PMS5003;46107;53.356;-1.524;2022-07-01T16:06:10;3;3;
60245;PMS5003;46107;53.356;-1.524;2022-07-01T16:08:41;2;2;
60245;PMS5003;46107;53.356;-1.524;2022-07-01T16:11:12;2;2;
60245;PMS5003;46107;53.356;-1.524;2022-07-01T16:13:42;4;3;
60245;PMS5003;46107;53.356;-1.524;2022-07-01T16:16:15;3;3;
60245;PMS5003;46107;53.356;-1.524;2022-07-01T16:18:47;3;2;
60245;PMS5003;46107;53.356;-1.524;2022-07-01T16:21:17;3;3;
60245;PMS5003;46107;53.356;-1.524;2022-07-01T16:23:45;3;3;
60245;PMS5003;46107;53.356;-1.524;2022-07-01T16:26:20;4;4;